sensor_id;sensor_type;location;lat;lon;timestamp;temperature;humidity
19060;DHT22;9663;48.996;8.334;2022-09-09T00:00:59;19.30;59.60
19060;DHT22;9663;48.996;8.334;2022-09-09T00:12:34;19.20;60.30
19060;DHT22;9663;48.996;8.334;2022-09-09T00:15:14;19.20;60.00
19060;DHT22;9663;48.996;8.334;2022-09-09T00:17:56;19.20;60.10
19060;DHT22;9663;48.996;8.334;2022-09-09T00:20:49;19.10;59.90
19060;DHT22;9663;48.996;8.334;2022-09-09T00:23:32;19.10;60.00
19060;DHT22;9663;48.996;8.334;2022-09-09T00:29:28;19.00;60.90
19060;DHT22;9663;48.996;8.334;2022-09-09T00:32:16;19.00;61.00
19060;DHT22;9663;48.996;8.334;2022-09-09T00:34:53;19.10;60.50
19060;DHT22;9663;48.996;8.334;2022-09-09T00:37:25;19.10;60.60
19060;DHT22;9663;48.996;8.334;2022-09-09T00:39:54;19.10;60.30
19060;DHT22;9663;48.996;8.334;2022-09-09T00:42:36;19.10;60.50
19060;DHT22;9663;48.996;8.334;2022-09-09T00:45:24;19.10;60.70
19060;DHT22;9663;48.996;8.334;2022-09-09T00:48:14;19.20;60.60
19060;DHT22;9663;48.996;8.334;2022-09-09T00:50:50;19.20;60.30
19060;DHT22;9663;48.996;8.334;2022-09-09T00:56:19;19.30;60.50
19060;DHT22;9663;48.996;8.334;2022-09-09T01:01:35;19.30;60.70
19060;DHT22;9663;48.996;8.334;2022-09-09T01:04:06;19.40;60.00
19060;DHT22;9663;48.996;8.334;2022-09-09T01:06:43;19.40;60.30
19060;DHT22;9663;48.996;8.334;2022-09-09T01:09:41;19.40;60.10
19060;DHT22;9663;48.996;8.334;2022-09-09T01:12:24;19.40;60.60
19060;DHT22;9663;48.996;8.334;2022-09-09T01:15:08;19.50;60.20
19060;DHT22;9663;48.996;8.334;2022-09-09T01:18:00;19.40;60.50
19060;DHT22;9663;48.996;8.334;2022-09-09T01:23:37;19.40;60.50
19060;DHT22;9663;48.996;8.334;2022-09-09T01:26:30;19.50;60.20
19060;DHT22;9663;48.996;8.334;2022-09-09T01:29:00;19.50;60.30
19060;DHT22;9663;48.996;8.334;2022-09-09T01:31:39;19.50;59.90
19060;DHT22;9663;48.996;8.334;2022-09-09T01:34:12;19.50;60.00
19060;DHT22;9663;48.996;8.334;2022-09-09T01:36:47;19.60;60.20
19060;DHT22;9663;48.996;8.334;2022-09-09T01:39:35;19.50;60.30
19060;DHT22;9663;48.996;8.334;2022-09-09T01:42:06;19.60;59.90
19060;DHT22;9663;48.996;8.334;2022-09-09T01:44:34;19.50;59.90
19060;DHT22;9663;48.996;8.334;2022-09-09T01:47:02;19.40;59.90
19060;DHT22;9663;48.996;8.334;2022-09-09T01:49:29;19.40;60.00
19060;DHT22;9663;48.996;8.334;2022-09-09T01:51:56;19.40;60.00
19060;DHT22;9663;48.996;8.334;2022-09-09T01:54:25;19.40;60.20
19060;DHT22;9663;48.996;8.334;2022-09-09T02:03:12;19.20;60.50
19060;DHT22;9663;48.996;8.334;2022-09-09T02:06:27;19.10;61.60
19060;DHT22;9663;48.996;8.334;2022-09-09T02:08:56;19.00;61.50
19060;DHT22;9663;48.996;8.334;2022-09-09T02:11:28;19.00;60.80
19060;DHT22;9663;48.996;8.334;2022-09-09T02:14:06;18.90;61.00
19060;DHT22;9663;48.996;8.334;2022-09-09T02:16:40;18.80;61.40
19060;DHT22;9663;48.996;8.334;2022-09-09T02:19:22;18.80;61.10
19060;DHT22;9663;48.996;8.334;2022-09-09T02:21:55;18.70;61.50
19060;DHT22;9663;48.996;8.334;2022-09-09T02:24:23;18.70;61.10
19060;DHT22;9663;48.996;8.334;2022-09-09T02:26:51;18.80;61.20
19060;DHT22;9663;48.996;8.334;2022-09-09T02:29:30;18.70;61.50
19060;DHT22;9663;48.996;8.334;2022-09-09T02:32:03;18.70;61.70
19060;DHT22;9663;48.996;8.334;2022-09-09T02:34:35;18.70;61.50
19060;DHT22;9663;48.996;8.334;2022-09-09T02:37:06;18.70;62.30
19060;DHT22;9663;48.996;8.334;2022-09-09T02:39:34;18.60;61.50
19060;DHT22;9663;48.996;8.334;2022-09-09T02:42:00;18.60;61.40
19060;DHT22;9663;48.996;8.334;2022-09-09T02:44:26;18.60;61.40
19060;DHT22;9663;48.996;8.334;2022-09-09T02:52:59;18.60;61.90
19060;DHT22;9663;48.996;8.334;2022-09-09T02:56:00;18.50;62.70
19060;DHT22;9663;48.996;8.334;2022-09-09T02:58:40;18.50;62.50
19060;DHT22;9663;48.996;8.334;2022-09-09T03:01:07;18.50;61.80
19060;DHT22;9663;48.996;8.334;2022-09-09T03:03:34;18.50;61.90
19060;DHT22;9663;48.996;8.334;2022-09-09T03:06:00;18.50;62.00
19060;DHT22;9663;48.996;8.334;2022-09-09T03:08:26;18.50;62.10
19060;DHT22;9663;48.996;8.334;2022-09-09T03:10:54;18.50;62.10
19060;DHT22;9663;48.996;8.334;2022-09-09T03:13:20;18.40;62.20
19060;DHT22;9663;48.996;8.334;2022-09-09T03:15:47;18.40;62.10
19060;DHT22;9663;48.996;8.334;2022-09-09T03:18:14;18.50;62.40
19060;DHT22;9663;48.996;8.334;2022-09-09T03:20:39;18.50;62.20
19060;DHT22;9663;48.996;8.334;2022-09-09T03:23:07;18.40;62.20
19060;DHT22;9663;48.996;8.334;2022-09-09T03:25:33;18.40;62.30
19060;DHT22;9663;48.996;8.334;2022-09-09T03:27:59;18.40;62.30
19060;DHT22;9663;48.996;8.334;2022-09-09T03:30:26;18.30;62.30
19060;DHT22;9663;48.996;8.334;2022-09-09T03:32:53;18.40;62.40
19060;DHT22;9663;48.996;8.334;2022-09-09T03:35:20;18.30;62.40
19060;DHT22;9663;48.996;8.334;2022-09-09T03:37:46;18.20;62.50
19060;DHT22;9663;48.996;8.334;2022-09-09T03:40:13;18.30;62.60
19060;DHT22;9663;48.996;8.334;2022-09-09T03:42:39;18.30;62.90
19060;DHT22;9663;48.996;8.334;2022-09-09T03:45:07;18.30;62.70
19060;DHT22;9663;48.996;8.334;2022-09-09T03:47:34;18.20;62.70
19060;DHT22;9663;48.996;8.334;2022-09-09T03:50:00;18.20;62.70
19060;DHT22;9663;48.996;8.334;2022-09-09T03:52:26;18.20;62.80
19060;DHT22;9663;48.996;8.334;2022-09-09T03:54:53;18.20;62.90
19060;DHT22;9663;48.996;8.334;2022-09-09T03:57:19;18.20;63.00
19060;DHT22;9663;48.996;8.334;2022-09-09T03:59:45;18.10;63.00
19060;DHT22;9663;48.996;8.334;2022-09-09T04:02:11;18.20;63.10
19060;DHT22;9663;48.996;8.334;2022-09-09T04:04:37;18.10;63.00
19060;DHT22;9663;48.996;8.334;2022-09-09T04:07:02;18.20;63.10
19060;DHT22;9663;48.996;8.334;2022-09-09T04:09:31;18.10;63.10
19060;DHT22;9663;48.996;8.334;2022-09-09T04:11:57;18.10;63.10
19060;DHT22;9663;48.996;8.334;2022-09-09T04:14:22;18.20;63.30
19060;DHT22;9663;48.996;8.334;2022-09-09T04:16:48;18.20;63.30
19060;DHT22;9663;48.996;8.334;2022-09-09T04:19:14;18.20;63.30
19060;DHT22;9663;48.996;8.334;2022-09-09T04:21:40;18.10;63.30
19060;DHT22;9663;48.996;8.334;2022-09-09T04:24:09;18.20;63.40
19060;DHT22;9663;48.996;8.334;2022-09-09T04:26:36;18.20;63.70
19060;DHT22;9663;48.996;8.334;2022-09-09T04:29:03;18.20;63.50
19060;DHT22;9663;48.996;8.334;2022-09-09T04:31:29;18.30;63.50
19060;DHT22;9663;48.996;8.334;2022-09-09T04:33:55;18.30;63.40
19060;DHT22;9663;48.996;8.334;2022-09-09T04:36:21;18.30;63.50
19060;DHT22;9663;48.996;8.334;2022-09-09T04:38:47;18.30;63.50
19060;DHT22;9663;48.996;8.334;2022-09-09T04:41:15;18.40;63.60
19060;DHT22;9663;48.996;8.334;2022-09-09T04:43:42;18.40;63.60
19060;DHT22;9663;48.996;8.334;2022-09-09T04:46:08;18.40;63.70
19060;DHT22;9663;48.996;8.334;2022-09-09T04:48:34;18.40;63.70
19060;DHT22;9663;48.996;8.334;2022-09-09T04:51:01;18.40;63.60
19060;DHT22;9663;48.996;8.334;2022-09-09T04:53:29;18.50;63.70
19060;DHT22;9663;48.996;8.334;2022-09-09T04:58:28;18.50;64.00
19060;DHT22;9663;48.996;8.334;2022-09-09T05:00:54;18.60;63.60
19060;DHT22;9663;48.996;8.334;2022-09-09T05:03:20;18.50;63.50
19060;DHT22;9663;48.996;8.334;2022-09-09T05:05:45;18.70;63.50
19060;DHT22;9663;48.996;8.334;2022-09-09T05:08:11;18.60;63.50
19060;DHT22;9663;48.996;8.334;2022-09-09T05:10:38;18.60;63.40
19060;DHT22;9663;48.996;8.334;2022-09-09T05:13:04;18.70;63.60
19060;DHT22;9663;48.996;8.334;2022-09-09T05:15:30;18.70;63.60
19060;DHT22;9663;48.996;8.334;2022-09-09T05:17:58;18.80;63.60
19060;DHT22;9663;48.996;8.334;2022-09-09T05:20:25;18.80;63.60
19060;DHT22;9663;48.996;8.334;2022-09-09T05:22:54;18.80;63.60
19060;DHT22;9663;48.996;8.334;2022-09-09T05:25:20;18.80;63.60
19060;DHT22;9663;48.996;8.334;2022-09-09T05:27:47;18.90;63.50
19060;DHT22;9663;48.996;8.334;2022-09-09T05:30:13;18.90;63.30
19060;DHT22;9663;48.996;8.334;2022-09-09T05:32:38;18.90;63.30
19060;DHT22;9663;48.996;8.334;2022-09-09T05:35:04;18.90;63.30
19060;DHT22;9663;48.996;8.334;2022-09-09T05:37:31;19.00;64.10
19060;DHT22;9663;48.996;8.334;2022-09-09T05:39:56;19.00;63.20
19060;DHT22;9663;48.996;8.334;2022-09-09T05:42:23;19.00;63.20
19060;DHT22;9663;48.996;8.334;2022-09-09T05:44:49;19.00;63.10
19060;DHT22;9663;48.996;8.334;2022-09-09T05:47:16;19.10;63.20
19060;DHT22;9663;48.996;8.334;2022-09-09T05:49:42;19.00;63.10
19060;DHT22;9663;48.996;8.334;2022-09-09T05:52:08;19.00;63.10
19060;DHT22;9663;48.996;8.334;2022-09-09T05:54:35;19.00;63.20
19060;DHT22;9663;48.996;8.334;2022-09-09T05:57:02;19.10;63.30
19060;DHT22;9663;48.996;8.334;2022-09-09T05:59:28;19.10;63.30
19060;DHT22;9663;48.996;8.334;2022-09-09T06:01:54;19.10;63.30
19060;DHT22;9663;48.996;8.334;2022-09-09T06:04:20;19.20;63.40
19060;DHT22;9663;48.996;8.334;2022-09-09T06:06:47;19.30;63.30
19060;DHT22;9663;48.996;8.334;2022-09-09T06:09:14;19.40;63.30
19060;DHT22;9663;48.996;8.334;2022-09-09T06:11:41;19.40;63.20
19060;DHT22;9663;48.996;8.334;2022-09-09T06:14:08;19.50;63.20
19060;DHT22;9663;48.996;8.334;2022-09-09T06:16:34;19.60;63.20
19060;DHT22;9663;48.996;8.334;2022-09-09T06:19:03;19.60;63.20
19060;DHT22;9663;48.996;8.334;2022-09-09T06:21:34;19.60;63.10
19060;DHT22;9663;48.996;8.334;2022-09-09T06:24:02;19.70;63.30
19060;DHT22;9663;48.996;8.334;2022-09-09T06:26:37;19.80;63.20
19060;DHT22;9663;48.996;8.334;2022-09-09T06:29:06;19.80;63.40
19060;DHT22;9663;48.996;8.334;2022-09-09T06:31:33;19.80;63.10
19060;DHT22;9663;48.996;8.334;2022-09-09T06:34:04;19.90;63.20
19060;DHT22;9663;48.996;8.334;2022-09-09T06:36:33;20.00;63.10
19060;DHT22;9663;48.996;8.334;2022-09-09T06:39:01;20.00;63.10
19060;DHT22;9663;48.996;8.334;2022-09-09T06:41:28;20.00;62.90
19060;DHT22;9663;48.996;8.334;2022-09-09T06:43:55;20.20;63.10
19060;DHT22;9663;48.996;8.334;2022-09-09T06:46:24;20.20;63.10
19060;DHT22;9663;48.996;8.334;2022-09-09T06:48:55;20.30;63.00
19060;DHT22;9663;48.996;8.334;2022-09-09T06:51:24;20.30;62.70
19060;DHT22;9663;48.996;8.334;2022-09-09T06:53:53;20.40;62.70
19060;DHT22;9663;48.996;8.334;2022-09-09T06:56:37;20.40;62.50
19060;DHT22;9663;48.996;8.334;2022-09-09T06:59:06;20.40;62.60
19060;DHT22;9663;48.996;8.334;2022-09-09T07:01:35;20.40;62.40
19060;DHT22;9663;48.996;8.334;2022-09-09T07:04:04;20.50;62.50
19060;DHT22;9663;48.996;8.334;2022-09-09T07:06:35;20.50;62.40
19060;DHT22;9663;48.996;8.334;2022-09-09T07:09:05;20.50;62.40
19060;DHT22;9663;48.996;8.334;2022-09-09T07:11:46;20.70;62.50
19060;DHT22;9663;48.996;8.334;2022-09-09T07:14:13;20.70;63.30
19060;DHT22;9663;48.996;8.334;2022-09-09T07:16:41;20.80;63.00
19060;DHT22;9663;48.996;8.334;2022-09-09T07:19:07;20.90;62.10
19060;DHT22;9663;48.996;8.334;2022-09-09T07:21:34;21.00;62.00
19060;DHT22;9663;48.996;8.334;2022-09-09T07:24:00;21.00;61.80
19060;DHT22;9663;48.996;8.334;2022-09-09T07:26:29;21.00;62.50
19060;DHT22;9663;48.996;8.334;2022-09-09T07:28:56;21.00;61.60
19060;DHT22;9663;48.996;8.334;2022-09-09T07:31:30;21.00;61.50
19060;DHT22;9663;48.996;8.334;2022-09-09T07:33:58;21.00;61.50
19060;DHT22;9663;48.996;8.334;2022-09-09T07:36:27;21.10;61.60
19060;DHT22;9663;48.996;8.334;2022-09-09T07:38:59;21.10;61.90
19060;DHT22;9663;48.996;8.334;2022-09-09T07:41:30;21.20;62.00
19060;DHT22;9663;48.996;8.334;2022-09-09T07:43:59;21.20;61.90
19060;DHT22;9663;48.996;8.334;2022-09-09T07:46:29;21.30;61.80
19060;DHT22;9663;48.996;8.334;2022-09-09T07:48:56;21.30;62.00
19060;DHT22;9663;48.996;8.334;2022-09-09T07:51:33;21.40;61.80
19060;DHT22;9663;48.996;8.334;2022-09-09T07:54:06;21.50;61.60
19060;DHT22;9663;48.996;8.334;2022-09-09T07:56:34;21.50;61.60
19060;DHT22;9663;48.996;8.334;2022-09-09T07:59:01;21.60;61.80
19060;DHT22;9663;48.996;8.334;2022-09-09T08:01:29;21.80;61.90
19060;DHT22;9663;48.996;8.334;2022-09-09T08:04:02;21.90;61.80
19060;DHT22;9663;48.996;8.334;2022-09-09T08:06:40;22.10;61.50
19060;DHT22;9663;48.996;8.334;2022-09-09T08:09:08;22.10;61.10
19060;DHT22;9663;48.996;8.334;2022-09-09T08:11:35;22.20;60.80
19060;DHT22;9663;48.996;8.334;2022-09-09T08:14:02;22.20;60.70
19060;DHT22;9663;48.996;8.334;2022-09-09T08:16:32;22.30;60.70
19060;DHT22;9663;48.996;8.334;2022-09-09T08:19:02;22.30;60.40
19060;DHT22;9663;48.996;8.334;2022-09-09T08:21:30;22.30;60.30
19060;DHT22;9663;48.996;8.334;2022-09-09T08:23:59;22.40;60.20
19060;DHT22;9663;48.996;8.334;2022-09-09T08:26:31;22.40;60.00
19060;DHT22;9663;48.996;8.334;2022-09-09T08:29:00;22.40;60.00
19060;DHT22;9663;48.996;8.334;2022-09-09T08:31:30;22.30;60.00
19060;DHT22;9663;48.996;8.334;2022-09-09T08:34:01;22.30;60.00
19060;DHT22;9663;48.996;8.334;2022-09-09T08:36:30;22.20;59.90
19060;DHT22;9663;48.996;8.334;2022-09-09T08:39:02;22.20;60.10
19060;DHT22;9663;48.996;8.334;2022-09-09T08:41:53;22.20;60.40
19060;DHT22;9663;48.996;8.334;2022-09-09T08:50:36;22.40;60.60
19060;DHT22;9663;48.996;8.334;2022-09-09T08:53:28;22.40;60.10
19060;DHT22;9663;48.996;8.334;2022-09-09T08:56:14;22.50;60.00
19060;DHT22;9663;48.996;8.334;2022-09-09T08:58:53;22.60;59.90
19060;DHT22;9663;48.996;8.334;2022-09-09T09:12:54;22.10;59.90
19060;DHT22;9663;48.996;8.334;2022-09-09T09:15:36;22.00;59.90
19060;DHT22;9663;48.996;8.334;2022-09-09T09:18:04;22.00;60.00
19060;DHT22;9663;48.996;8.334;2022-09-09T09:20:57;22.00;60.10
19060;DHT22;9663;48.996;8.334;2022-09-09T09:23:55;22.10;60.40
19060;DHT22;9663;48.996;8.334;2022-09-09T09:26:28;22.10;60.70
19060;DHT22;9663;48.996;8.334;2022-09-09T09:28:59;22.30;60.80
19060;DHT22;9663;48.996;8.334;2022-09-09T09:31:26;22.50;61.00
19060;DHT22;9663;48.996;8.334;2022-09-09T09:33:56;22.70;61.10
19060;DHT22;9663;48.996;8.334;2022-09-09T09:36:34;22.90;60.70
19060;DHT22;9663;48.996;8.334;2022-09-09T09:39:05;23.20;59.90
19060;DHT22;9663;48.996;8.334;2022-09-09T09:41:34;23.30;59.60
19060;DHT22;9663;48.996;8.334;2022-09-09T09:44:03;23.40;59.30
19060;DHT22;9663;48.996;8.334;2022-09-09T09:46:30;23.40;58.90
19060;DHT22;9663;48.996;8.334;2022-09-09T09:49:02;23.40;58.70
19060;DHT22;9663;48.996;8.334;2022-09-09T09:51:32;23.50;58.80
19060;DHT22;9663;48.996;8.334;2022-09-09T09:54:18;23.50;58.90
19060;DHT22;9663;48.996;8.334;2022-09-09T09:56:53;23.60;58.20
19060;DHT22;9663;48.996;8.334;2022-09-09T09:59:37;23.70;58.50
19060;DHT22;9663;48.996;8.334;2022-09-09T10:04:45;23.70;57.80
19060;DHT22;9663;48.996;8.334;2022-09-09T10:07:17;23.60;58.20
19060;DHT22;9663;48.996;8.334;2022-09-09T10:09:44;23.70;58.20
19060;DHT22;9663;48.996;8.334;2022-09-09T10:15:26;23.90;57.50
19060;DHT22;9663;48.996;8.334;2022-09-09T10:20:59;24.10;57.10
19060;DHT22;9663;48.996;8.334;2022-09-09T10:26:41;24.20;57.50
19060;DHT22;9663;48.996;8.334;2022-09-09T10:29:43;24.20;57.00
19060;DHT22;9663;48.996;8.334;2022-09-09T10:32:36;24.30;57.20
19060;DHT22;9663;48.996;8.334;2022-09-09T10:35:24;24.50;57.40
19060;DHT22;9663;48.996;8.334;2022-09-09T10:38:16;24.60;56.80
19060;DHT22;9663;48.996;8.334;2022-09-09T10:46:45;25.00;55.70
19060;DHT22;9663;48.996;8.334;2022-09-09T10:49:20;25.10;55.80
19060;DHT22;9663;48.996;8.334;2022-09-09T10:55:20;25.30;55.30
19060;DHT22;9663;48.996;8.334;2022-09-09T10:57:53;25.40;56.10
19060;DHT22;9663;48.996;8.334;2022-09-09T11:00:45;25.50;56.20
19060;DHT22;9663;48.996;8.334;2022-09-09T11:03:24;25.60;55.30
19060;DHT22;9663;48.996;8.334;2022-09-09T11:06:15;25.70;55.60
19060;DHT22;9663;48.996;8.334;2022-09-09T11:08:43;25.80;55.80
19060;DHT22;9663;48.996;8.334;2022-09-09T11:11:30;26.00;56.00
19060;DHT22;9663;48.996;8.334;2022-09-09T11:19:46;26.60;54.20
19060;DHT22;9663;48.996;8.334;2022-09-09T11:25:25;27.00;53.60
19060;DHT22;9663;48.996;8.334;2022-09-09T11:40:22;30.20;52.70
19060;DHT22;9663;48.996;8.334;2022-09-09T11:45:53;31.90;50.70
19060;DHT22;9663;48.996;8.334;2022-09-09T11:51:10;32.50;48.50
19060;DHT22;9663;48.996;8.334;2022-09-09T11:56:29;32.10;47.20
19060;DHT22;9663;48.996;8.334;2022-09-09T11:59:05;32.30;49.00
19060;DHT22;9663;48.996;8.334;2022-09-09T12:01:45;32.70;49.50
19060;DHT22;9663;48.996;8.334;2022-09-09T12:07:05;33.70;47.90
19060;DHT22;9663;48.996;8.334;2022-09-09T12:09:56;33.70;46.20
19060;DHT22;9663;48.996;8.334;2022-09-09T12:12:34;33.30;45.10
19060;DHT22;9663;48.996;8.334;2022-09-09T12:17:47;31.90;44.50
19060;DHT22;9663;48.996;8.334;2022-09-09T12:31:46;28.70;46.60
19060;DHT22;9663;48.996;8.334;2022-09-09T12:34:30;28.10;47.40
19060;DHT22;9663;48.996;8.334;2022-09-09T12:37:34;27.70;47.50
19060;DHT22;9663;48.996;8.334;2022-09-09T12:40:05;27.20;47.60
19060;DHT22;9663;48.996;8.334;2022-09-09T12:42:43;26.80;48.20
19060;DHT22;9663;48.996;8.334;2022-09-09T12:47:53;26.60;50.00
19060;DHT22;9663;48.996;8.334;2022-09-09T12:50:29;27.10;51.60
19060;DHT22;9663;48.996;8.334;2022-09-09T12:53:12;28.00;52.00
19060;DHT22;9663;48.996;8.334;2022-09-09T12:55:51;28.90;50.60
19060;DHT22;9663;48.996;8.334;2022-09-09T12:58:48;29.40;47.80
19060;DHT22;9663;48.996;8.334;2022-09-09T13:01:31;29.30;47.10
19060;DHT22;9663;48.996;8.334;2022-09-09T13:04:00;28.80;46.10
19060;DHT22;9663;48.996;8.334;2022-09-09T13:06:29;28.40;46.90
19060;DHT22;9663;48.996;8.334;2022-09-09T13:08:57;27.90;46.90
19060;DHT22;9663;48.996;8.334;2022-09-09T13:11:50;27.50;47.30
19060;DHT22;9663;48.996;8.334;2022-09-09T13:14:34;27.10;47.20
19060;DHT22;9663;48.996;8.334;2022-09-09T13:17:05;26.70;47.80
19060;DHT22;9663;48.996;8.334;2022-09-09T13:19:38;26.40;48.40
19060;DHT22;9663;48.996;8.334;2022-09-09T13:25:24;26.10;49.40
19060;DHT22;9663;48.996;8.334;2022-09-09T13:28:01;26.10;49.80
19060;DHT22;9663;48.996;8.334;2022-09-09T13:30:30;26.40;50.80
19060;DHT22;9663;48.996;8.334;2022-09-09T13:33:21;26.60;51.20
19060;DHT22;9663;48.996;8.334;2022-09-09T13:35:56;27.10;50.70
19060;DHT22;9663;48.996;8.334;2022-09-09T13:38:24;27.40;49.90
19060;DHT22;9663;48.996;8.334;2022-09-09T13:41:08;27.50;49.50
19060;DHT22;9663;48.996;8.334;2022-09-09T13:43:43;27.40;48.60
19060;DHT22;9663;48.996;8.334;2022-09-09T13:46:30;27.10;48.30
19060;DHT22;9663;48.996;8.334;2022-09-09T13:49:19;26.90;48.50
19060;DHT22;9663;48.996;8.334;2022-09-09T13:51:49;26.70;48.80
19060;DHT22;9663;48.996;8.334;2022-09-09T13:54:19;26.30;48.90
19060;DHT22;9663;48.996;8.334;2022-09-09T13:56:46;26.10;49.30
19060;DHT22;9663;48.996;8.334;2022-09-09T13:59:14;26.00;49.50
19060;DHT22;9663;48.996;8.334;2022-09-09T14:01:42;25.80;49.50
19060;DHT22;9663;48.996;8.334;2022-09-09T14:04:09;25.60;49.60
19060;DHT22;9663;48.996;8.334;2022-09-09T14:06:36;25.30;49.50
19060;DHT22;9663;48.996;8.334;2022-09-09T14:09:04;25.10;49.80
19060;DHT22;9663;48.996;8.334;2022-09-09T14:11:30;24.70;49.60
19060;DHT22;9663;48.996;8.334;2022-09-09T14:13:56;24.20;49.10
19060;DHT22;9663;48.996;8.334;2022-09-09T14:16:22;23.70;49.40
19060;DHT22;9663;48.996;8.334;2022-09-09T14:22:28;22.60;51.00
19060;DHT22;9663;48.996;8.334;2022-09-09T14:24:54;22.20;51.10
19060;DHT22;9663;48.996;8.334;2022-09-09T14:27:23;21.80;51.70
19060;DHT22;9663;48.996;8.334;2022-09-09T14:29:48;21.50;52.80
19060;DHT22;9663;48.996;8.334;2022-09-09T14:32:14;21.30;53.10
19060;DHT22;9663;48.996;8.334;2022-09-09T14:34:40;21.20;53.60
19060;DHT22;9663;48.996;8.334;2022-09-09T14:37:05;21.10;53.90
19060;DHT22;9663;48.996;8.334;2022-09-09T14:39:31;21.00;54.30
19060;DHT22;9663;48.996;8.334;2022-09-09T14:41:57;21.00;54.70
19060;DHT22;9663;48.996;8.334;2022-09-09T14:44:23;20.90;55.00
19060;DHT22;9663;48.996;8.334;2022-09-09T14:46:53;20.90;55.00
19060;DHT22;9663;48.996;8.334;2022-09-09T14:49:20;20.90;55.10
19060;DHT22;9663;48.996;8.334;2022-09-09T14:51:45;20.80;54.80
19060;DHT22;9663;48.996;8.334;2022-09-09T14:54:11;20.70;54.80
19060;DHT22;9663;48.996;8.334;2022-09-09T14:56:37;20.60;55.10
19060;DHT22;9663;48.996;8.334;2022-09-09T14:59:03;20.60;55.60
19060;DHT22;9663;48.996;8.334;2022-09-09T15:01:30;20.50;56.00
19060;DHT22;9663;48.996;8.334;2022-09-09T15:04:02;20.60;56.30
19060;DHT22;9663;48.996;8.334;2022-09-09T15:06:35;20.60;56.50
19060;DHT22;9663;48.996;8.334;2022-09-09T15:09:05;20.60;56.30
19060;DHT22;9663;48.996;8.334;2022-09-09T15:15:11;20.70;57.20
19060;DHT22;9663;48.996;8.334;2022-09-09T15:17:37;20.80;56.40
19060;DHT22;9663;48.996;8.334;2022-09-09T15:20:04;21.00;57.00
19060;DHT22;9663;48.996;8.334;2022-09-09T15:22:31;21.20;57.30
19060;DHT22;9663;48.996;8.334;2022-09-09T15:24:57;21.60;57.70
19060;DHT22;9663;48.996;8.334;2022-09-09T15:27:23;22.00;58.20
19060;DHT22;9663;48.996;8.334;2022-09-09T15:29:50;22.70;58.40
19060;DHT22;9663;48.996;8.334;2022-09-09T15:32:17;23.60;59.50
19060;DHT22;9663;48.996;8.334;2022-09-09T15:34:43;24.40;58.60
19060;DHT22;9663;48.996;8.334;2022-09-09T15:37:10;25.20;57.00
19060;DHT22;9663;48.996;8.334;2022-09-09T15:39:39;25.70;56.20
19060;DHT22;9663;48.996;8.334;2022-09-09T15:42:06;26.20;55.80
19060;DHT22;9663;48.996;8.334;2022-09-09T15:44:42;26.70;55.40
19060;DHT22;9663;48.996;8.334;2022-09-09T15:47:10;27.20;55.20
19060;DHT22;9663;48.996;8.334;2022-09-09T15:49:38;27.80;54.40
19060;DHT22;9663;48.996;8.334;2022-09-09T15:52:05;28.10;52.90
19060;DHT22;9663;48.996;8.334;2022-09-09T15:54:33;28.10;51.60
19060;DHT22;9663;48.996;8.334;2022-09-09T15:57:03;27.80;51.00
19060;DHT22;9663;48.996;8.334;2022-09-09T15:59:30;27.50;51.00
19060;DHT22;9663;48.996;8.334;2022-09-09T16:01:57;27.10;50.80
19060;DHT22;9663;48.996;8.334;2022-09-09T16:04:25;26.70;50.50
19060;DHT22;9663;48.996;8.334;2022-09-09T16:06:54;26.20;50.50
19060;DHT22;9663;48.996;8.334;2022-09-09T16:09:24;25.70;50.50
19060;DHT22;9663;48.996;8.334;2022-09-09T16:11:51;25.20;50.50
19060;DHT22;9663;48.996;8.334;2022-09-09T16:14:18;24.70;50.80
19060;DHT22;9663;48.996;8.334;2022-09-09T16:16:44;24.30;51.30
19060;DHT22;9663;48.996;8.334;2022-09-09T16:19:12;23.90;51.60
19060;DHT22;9663;48.996;8.334;2022-09-09T16:21:49;23.50;51.90
19060;DHT22;9663;48.996;8.334;2022-09-09T16:24:18;23.20;52.60
19060;DHT22;9663;48.996;8.334;2022-09-09T16:26:48;22.90;52.70
19060;DHT22;9663;48.996;8.334;2022-09-09T16:29:20;22.60;53.10
19060;DHT22;9663;48.996;8.334;2022-09-09T16:31:48;22.40;53.30
19060;DHT22;9663;48.996;8.334;2022-09-09T16:34:16;22.10;53.50
19060;DHT22;9663;48.996;8.334;2022-09-09T16:36:44;22.00;53.70
19060;DHT22;9663;48.996;8.334;2022-09-09T16:39:16;21.80;54.00
19060;DHT22;9663;48.996;8.334;2022-09-09T16:41:48;21.60;54.60
19060;DHT22;9663;48.996;8.334;2022-09-09T16:44:16;21.50;54.80
19060;DHT22;9663;48.996;8.334;2022-09-09T16:46:45;21.40;55.00
19060;DHT22;9663;48.996;8.334;2022-09-09T16:49:14;21.40;55.30
19060;DHT22;9663;48.996;8.334;2022-09-09T16:51:46;21.20;55.50
19060;DHT22;9663;48.996;8.334;2022-09-09T16:54:14;21.30;56.00
19060;DHT22;9663;48.996;8.334;2022-09-09T16:56:43;21.20;56.00
19060;DHT22;9663;48.996;8.334;2022-09-09T16:59:14;21.20;56.20
19060;DHT22;9663;48.996;8.334;2022-09-09T17:01:43;21.20;56.30
19060;DHT22;9663;48.996;8.334;2022-09-09T17:04:13;21.20;56.40
19060;DHT22;9663;48.996;8.334;2022-09-09T17:06:46;21.20;56.40
19060;DHT22;9663;48.996;8.334;2022-09-09T17:09:15;21.20;56.40
19060;DHT22;9663;48.996;8.334;2022-09-09T17:11:41;21.20;56.30
19060;DHT22;9663;48.996;8.334;2022-09-09T17:14:08;21.20;56.20
19060;DHT22;9663;48.996;8.334;2022-09-09T17:16:38;21.10;56.20
19060;DHT22;9663;48.996;8.334;2022-09-09T17:19:05;21.00;56.00
19060;DHT22;9663;48.996;8.334;2022-09-09T17:21:32;20.90;56.00
19060;DHT22;9663;48.996;8.334;2022-09-09T17:23:58;20.90;56.00
19060;DHT22;9663;48.996;8.334;2022-09-09T17:26:27;20.90;56.20
19060;DHT22;9663;48.996;8.334;2022-09-09T17:28:55;20.80;56.30
19060;DHT22;9663;48.996;8.334;2022-09-09T17:31:23;20.70;56.20
19060;DHT22;9663;48.996;8.334;2022-09-09T17:33:50;20.70;56.40
19060;DHT22;9663;48.996;8.334;2022-09-09T17:36:23;20.60;56.40
19060;DHT22;9663;48.996;8.334;2022-09-09T17:38:57;20.50;56.50
19060;DHT22;9663;48.996;8.334;2022-09-09T17:41:27;20.40;56.50
19060;DHT22;9663;48.996;8.334;2022-09-09T17:43:54;20.50;56.80
19060;DHT22;9663;48.996;8.334;2022-09-09T17:46:23;20.40;56.80
19060;DHT22;9663;48.996;8.334;2022-09-09T17:48:56;20.30;56.90
19060;DHT22;9663;48.996;8.334;2022-09-09T17:51:24;20.30;57.00
19060;DHT22;9663;48.996;8.334;2022-09-09T17:53:58;20.10;57.00
19060;DHT22;9663;48.996;8.334;2022-09-09T17:56:30;20.20;57.10
19060;DHT22;9663;48.996;8.334;2022-09-09T17:58:58;20.10;57.20
19060;DHT22;9663;48.996;8.334;2022-09-09T18:01:28;19.90;57.20
19060;DHT22;9663;48.996;8.334;2022-09-09T18:03:56;19.90;57.40
19060;DHT22;9663;48.996;8.334;2022-09-09T18:06:28;19.80;57.50
19060;DHT22;9663;48.996;8.334;2022-09-09T18:08:58;19.80;57.70
19060;DHT22;9663;48.996;8.334;2022-09-09T18:11:29;19.60;57.70
19060;DHT22;9663;48.996;8.334;2022-09-09T18:14:00;19.60;58.00
19060;DHT22;9663;48.996;8.334;2022-09-09T18:16:29;19.40;58.10
19060;DHT22;9663;48.996;8.334;2022-09-09T18:19:00;19.30;58.20
19060;DHT22;9663;48.996;8.334;2022-09-09T18:21:30;19.30;58.20
19060;DHT22;9663;48.996;8.334;2022-09-09T18:23:59;19.20;59.00
19060;DHT22;9663;48.996;8.334;2022-09-09T18:26:27;19.30;59.10